Time;durP1;ratioP1;P1;durP2;ratioP2;P2;SDS_P1;SDS_P2;PMS_P1;PMS_P2;Temp;Humidity;BMP_temperature;BMP_pressure;BME280_temperature;BME280_humidity;BME280_pressure;Samples;Min_cycle;Max_cycle;Signal;HPM_P1;HPM_P2
2022/01/28 00:05:20;;;;;;;10.07;3.30;;;;;;;5.20;100.00;101117.72;5074082;28;20043;-76
2022/01/28 00:07:53;;;;;;;7.18;3.08;;;;;;;5.26;100.00;101112.13;5053680;28;20035;-76
2022/01/28 00:10:26;;;;;;;7.90;3.13;;;;;;;5.25;100.00;101118.34;5055741;28;20045;-76
2022/01/28 00:19:08;;;;;;;8.85;3.35;;;;;;;5.18;100.00;101134.59;5074230;28;20075;-76
2022/01/28 00:38:44;;;;;;;10.70;3.30;;;;;;;5.10;100.00;101189.78;5075294;28;20121;-76
2022/01/28 00:41:12;;;;;;;6.95;3.08;;;;;;;5.04;100.00;101190.94;5088039;28;20028;-76
2022/01/28 00:43:44;;;;;;;9.10;3.20;;;;;;;4.97;100.00;101202.78;5056738;28;20037;-76
2022/01/28 00:46:20;;;;;;;7.20;2.92;;;;;;;4.96;100.00;101201.06;5055087;28;20039;-75
2022/01/28 00:49:17;;;;;;;7.80;3.30;;;;;;;4.98;100.00;101208.00;5055693;28;20036;-75
2022/01/28 00:52:00;;;;;;;9.23;3.47;;;;;;;4.92;100.00;101215.38;5070715;28;20062;-76
2022/01/28 00:54:33;;;;;;;10.13;3.30;;;;;;;4.84;100.00;101226.34;5061943;28;20062;-77
2022/01/28 00:57:04;;;;;;;7.78;3.30;;;;;;;4.82;100.00;101227.34;5055812;28;20037;-76
2022/01/28 00:59:35;;;;;;;7.10;3.28;;;;;;;4.83;100.00;101229.06;5053816;28;20056;-76
2022/01/28 01:02:07;;;;;;;10.02;3.22;;;;;;;4.82;100.00;101229.97;5056796;28;20083;-77
2022/01/28 01:04:40;;;;;;;9.00;3.33;;;;;;;4.85;100.00;101227.19;5056241;28;20489;-76
2022/01/28 01:07:12;;;;;;;8.88;3.10;;;;;;;4.85;100.00;101228.06;5058685;28;20036;-77
2022/01/28 01:09:43;;;;;;;7.93;3.30;;;;;;;4.83;100.00;101227.25;5055699;28;20043;-76
2022/01/28 01:12:17;;;;;;;10.07;3.58;;;;;;;4.81;100.00;101234.44;5069510;28;20025;-77
2022/01/28 01:14:47;;;;;;;8.93;3.13;;;;;;;4.85;100.00;101229.84;5054684;28;20024;-75
2022/01/28 01:20:12;;;;;;;7.30;3.08;;;;;;;4.82;100.00;101243.22;5073257;28;20055;-77
2022/01/28 01:22:51;;;;;;;8.77;3.38;;;;;;;4.79;100.00;101254.84;5072752;28;20038;-76
2022/01/28 01:25:27;;;;;;;7.72;3.17;;;;;;;4.74;100.00;101268.28;5070868;28;20619;-76
2022/01/28 01:27:58;;;;;;;11.85;3.35;;;;;;;4.71;100.00;101265.75;5055487;28;20032;-76
2022/01/28 01:30:33;;;;;;;10.73;3.40;;;;;;;4.72;100.00;101259.53;5069874;28;20074;-76
2022/01/28 01:33:03;;;;;;;7.15;3.00;;;;;;;4.78;100.00;101262.84;5061560;28;20051;-76
2022/01/28 01:35:33;;;;;;;10.55;3.47;;;;;;;4.80;100.00;101268.94;5055159;28;20064;-77
2022/01/28 01:38:01;;;;;;;9.48;3.33;;;;;;;4.80;100.00;101272.44;5056461;28;20032;-74
2022/01/28 01:40:35;;;;;;;8.43;3.28;;;;;;;4.83;100.00;101280.25;5054372;28;20819;-76
2022/01/28 01:46:29;;;;;;;9.07;3.35;;;;;;;4.80;100.00;101283.06;5058401;28;20047;-77
2022/01/28 01:54:40;;;;;;;9.80;4.07;;;;;;;4.78;100.00;101286.69;5087487;28;20024;-76
2022/01/28 01:57:10;;;;;;;10.63;3.60;;;;;;;4.78;100.00;101289.34;5054047;28;20044;-77
2022/01/28 01:59:42;;;;;;;7.15;3.08;;;;;;;4.76;100.00;101293.84;5055528;28;20056;-75
2022/01/28 02:02:18;;;;;;;8.40;3.28;;;;;;;4.74;100.00;101301.88;5055291;28;20032;-77
2022/01/28 02:04:46;;;;;;;10.85;3.22;;;;;;;4.77;100.00;101295.56;5075436;28;20066;-76
2022/01/28 02:07:15;;;;;;;11.45;3.70;;;;;;;4.79;100.00;101301.66;5058460;28;20038;-76
2022/01/28 02:09:42;;;;;;;8.57;3.35;;;;;;;4.82;100.00;101307.69;5057755;28;20032;-75
2022/01/28 02:12:17;;;;;;;11.38;3.70;;;;;;;4.83;100.00;101313.84;5074473;28;20036;-77
2022/01/28 02:14:44;;;;;;;8.05;3.78;;;;;;;4.82;100.00;101313.00;5076161;28;20024;-76
2022/01/28 02:17:14;;;;;;;12.63;4.07;;;;;;;4.78;100.00;101316.72;5057849;28;20024;-76
2022/01/28 02:19:45;;;;;;;7.63;3.63;;;;;;;4.77;99.88;101314.13;5073009;28;20048;-76
2022/01/28 02:22:13;;;;;;;7.40;3.58;;;;;;;4.80;99.99;101314.00;5058857;28;20028;-76
2022/01/28 02:24:50;;;;;;;8.70;3.40;;;;;;;4.84;99.95;101316.44;5059606;28;20036;-75
2022/01/28 02:27:18;;;;;;;10.57;3.72;;;;;;;4.83;100.00;101314.72;5058317;28;20962;-76
2022/01/28 02:29:49;;;;;;;10.65;3.30;;;;;;;4.81;99.71;101313.91;5060117;28;20027;-75
2022/01/28 02:32:19;;;;;;;10.18;3.60;;;;;;;4.79;99.88;101315.78;5073747;28;20028;-76
2022/01/28 02:34:51;;;;;;;9.43;3.40;;;;;;;4.84;99.98;101319.09;5057351;28;20032;-76
2022/01/28 02:37:23;;;;;;;11.48;3.65;;;;;;;4.85;99.67;101320.81;5057212;28;20043;-76
2022/01/28 02:39:54;;;;;;;8.60;3.55;;;;;;;4.85;99.59;101325.25;5057503;28;20040;-76
2022/01/28 02:42:41;;;;;;;8.35;3.80;;;;;;;4.83;99.83;101316.50;5057458;28;20043;-76
2022/01/28 02:45:08;;;;;;;7.60;3.33;;;;;;;4.83;99.48;101313.84;5060435;28;20043;-76
2022/01/28 02:47:38;;;;;;;9.63;3.72;;;;;;;4.87;99.88;101312.78;5074393;28;20136;-77
2022/01/28 02:50:11;;;;;;;7.47;3.47;;;;;;;4.85;99.70;101314.66;5057750;28;20028;-77
2022/01/28 02:52:50;;;;;;;9.00;3.50;;;;;;;4.86;98.92;101313.72;5057761;28;20029;-77
2022/01/28 02:55:18;;;;;;;13.93;3.45;;;;;;;4.83;99.33;101313.84;5075007;28;20031;-75
2022/01/28 02:58:02;;;;;;;9.53;3.50;;;;;;;4.78;99.51;101316.72;5056057;28;20079;-75
2022/01/28 03:00:40;;;;;;;10.73;3.40;;;;;;;4.76;99.22;101318.56;5038479;28;20110;-77
2022/01/28 03:03:18;;;;;;;8.98;3.13;;;;;;;4.72;99.40;101312.50;5038432;28;20481;-75
2022/01/28 03:05:49;;;;;;;8.02;2.58;;;;;;;4.71;98.96;101320.53;5037597;28;20062;-76
2022/01/28 03:08:29;;;;;;;4.93;2.90;;;;;;;4.69;98.97;101323.25;5037117;28;20485;-76
2022/01/28 03:11:30;;;;;;;10.05;3.60;;;;;;;4.68;99.16;101321.53;5053100;28;20040;-75
2022/01/28 03:17:07;;;;;;;7.25;3.08;;;;;;;4.78;98.92;101326.44;5022799;28;20359;-76
2022/01/28 03:19:49;;;;;;;9.13;3.15;;;;;;;4.80;98.74;101329.88;5038519;28;20051;-76
2022/01/28 03:22:24;;;;;;;7.93;3.08;;;;;;;4.73;98.80;101334.59;5053236;28;20036;-77
2022/01/28 03:24:57;;;;;;;5.72;2.58;;;;;;;4.73;98.93;101350.50;5036295;28;20025;-76
2022/01/28 03:27:49;;;;;;;8.13;2.90;;;;;;;4.73;99.13;101345.19;5035805;28;20067;-75
2022/01/28 03:30:18;;;;;;;7.95;2.92;;;;;;;4.76;98.82;101346.84;5037095;28;20035;-76
2022/01/28 03:32:48;;;;;;;;;;;;;;;4.79;98.94;101357.31;5039554;28;20040;-76
2022/01/28 03:35:17;;;;;;;5.85;2.83;;;;;;;4.83;98.71;101351.81;5044386;28;19916;-76
2022/01/28 03:37:44;;;;;;;8.48;2.80;;;;;;;4.79;98.84;101359.97;5047176;28;20530;-76
2022/01/28 03:40:19;;;;;;;4.43;2.55;;;;;;;4.81;98.63;101348.38;5036658;28;20036;-77
2022/01/28 03:42:52;;;;;;;10.88;3.60;;;;;;;4.81;98.60;101358.09;5033622;28;20146;-76
2022/01/28 03:45:22;;;;;;;10.18;3.50;;;;;;;4.80;98.39;101346.66;5037020;28;20039;-76
2022/01/28 03:47:53;;;;;;;6.43;3.22;;;;;;;4.78;98.33;101358.25;5038429;28;20059;-75
2022/01/28 03:50:21;;;;;;;9.07;3.45;;;;;;;4.77;98.54;101367.97;5036385;28;20032;-76
2022/01/28 03:53:06;;;;;;;7.57;3.47;;;;;;;4.72;98.27;101367.28;5035426;28;20032;-75
2022/01/28 03:55:36;;;;;;;8.38;3.22;;;;;;;4.74;98.29;101379.56;5053455;28;20509;-76
2022/01/28 03:58:07;;;;;;;7.15;3.10;;;;;;;4.73;98.39;101375.19;5040531;28;20052;-77
2022/01/28 04:00:39;;;;;;;8.68;3.42;;;;;;;4.68;97.80;101377.16;5055691;28;20036;-75
2022/01/28 04:11:30;;;;;;;6.45;2.88;;;;;;;4.73;98.02;101377.00;5073744;28;20070;-75
2022/01/28 04:14:20;;;;;;;7.57;2.78;;;;;;;4.67;97.94;101383.38;5058183;28;20099;-76
2022/01/28 04:19:46;;;;;;;9.15;3.15;;;;;;;4.63;98.33;101381.78;5075131;28;20096;-76
2022/01/28 04:22:17;;;;;;;10.02;3.20;;;;;;;4.60;98.01;101370.47;5050550;28;20036;-76
2022/01/28 04:24:46;;;;;;;10.25;3.20;;;;;;;4.56;98.14;101382.97;5059961;28;20111;-77
2022/01/28 04:27:14;;;;;;;7.13;3.70;;;;;;;4.54;97.91;101374.22;5054786;28;20763;-75
2022/01/28 04:29:43;;;;;;;7.93;3.72;;;;;;;4.52;98.04;101377.88;5057363;28;20040;-76
2022/01/28 04:32:12;;;;;;;10.32;3.70;;;;;;;4.47;97.64;101387.81;5062724;28;20024;-76
2022/01/28 04:34:45;;;;;;;8.88;3.38;;;;;;;4.44;97.66;101388.78;5053191;28;20047;-77
2022/01/28 04:43:18;;;;;;;6.25;3.33;;;;;;;4.32;97.60;101416.66;5004755;28;20064;-76
2022/01/28 04:45:53;;;;;;;11.18;3.50;;;;;;;4.41;98.17;101415.41;5000700;28;21215;-76
2022/01/28 04:48:33;;;;;;;7.43;2.90;;;;;;;4.43;97.92;101411.75;5034112;28;20047;-77
2022/01/28 04:51:20;;;;;;;11.13;3.30;;;;;;;4.46;97.51;101400.19;5054812;28;20372;-76
2022/01/28 04:56:55;;;;;;;11.02;3.15;;;;;;;4.55;97.88;101402.44;5055939;28;20044;-77
2022/01/28 05:05:28;;;;;;;6.75;3.15;;;;;;;4.61;98.11;101419.88;5070212;28;20090;-77
2022/01/28 05:11:31;;;;;;;9.52;3.20;;;;;;;4.58;98.06;101417.34;5075455;28;20033;-76
2022/01/28 05:27:45;;;;;;;9.80;2.97;;;;;;;4.59;97.71;101432.31;5070954;28;20039;-76
2022/01/28 05:30:18;;;;;;;9.00;3.38;;;;;;;4.61;97.90;101435.75;5055271;28;20104;-76
2022/01/28 05:32:48;;;;;;;7.45;3.10;;;;;;;4.63;97.85;101428.63;5062531;28;20127;-77
2022/01/28 05:35:22;;;;;;;9.18;2.58;;;;;;;4.59;98.08;101438.47;5061699;28;20043;-76
2022/01/28 05:37:56;;;;;;;7.07;3.17;;;;;;;4.56;97.87;101446.56;5073758;28;20040;-75
2022/01/28 05:40:39;;;;;;;7.55;2.67;;;;;;;4.50;97.74;101448.59;5077269;28;20049;-75
2022/01/28 05:43:10;;;;;;;11.88;3.15;;;;;;;4.50;97.59;101449.44;5059884;28;20082;-76
2022/01/28 05:45:40;;;;;;;9.20;3.35;;;;;;;4.50;97.50;101454.75;5059028;28;20501;-76
2022/01/28 05:48:12;;;;;;;9.15;3.40;;;;;;;4.46;97.98;101463.75;5057688;28;20028;-76
2022/01/28 05:50:47;;;;;;;6.78;2.85;;;;;;;4.46;97.47;101458.44;5067266;28;20063;-75
2022/01/28 05:53:17;;;;;;;8.82;3.00;;;;;;;4.49;97.51;101455.69;5059794;28;20040;-75
2022/01/28 05:55:51;;;;;;;5.90;3.05;;;;;;;4.48;97.37;101461.03;5058294;28;20310;-77
2022/01/28 05:58:27;;;;;;;7.55;3.20;;;;;;;4.46;97.55;101465.53;5059579;28;20290;-76
2022/01/28 06:01:02;;;;;;;8.45;3.28;;;;;;;4.46;97.72;101470.84;5055996;28;20055;-76
2022/01/28 06:03:47;;;;;;;8.75;3.10;;;;;;;4.43;97.00;101479.75;5058490;28;20048;-76
2022/01/28 06:06:20;;;;;;;6.32;3.10;;;;;;;4.39;97.40;101480.81;5059363;28;20100;-77
2022/01/28 06:09:00;;;;;;;6.35;3.50;;;;;;;4.39;97.01;101480.81;5055587;28;20048;-77
2022/01/28 06:11:33;;;;;;;7.88;3.40;;;;;;;4.40;97.06;101482.53;5072468;28;20059;-75
2022/01/28 06:14:09;;;;;;;8.65;3.10;;;;;;;4.41;97.20;101487.75;5056096;28;20109;-76
2022/01/28 06:16:39;;;;;;;8.88;3.47;;;;;;;4.47;97.38;101480.50;5064914;28;20070;-75
2022/01/28 06:19:10;;;;;;;9.25;3.15;;;;;;;4.49;97.13;101490.09;5058584;28;20078;-76
2022/01/28 06:21:43;;;;;;;9.15;3.72;;;;;;;4.50;97.51;101493.63;5057875;28;20032;-75
2022/01/28 06:24:14;;;;;;;9.15;3.53;;;;;;;4.48;97.23;101500.75;5059884;28;20063;-77
2022/01/28 06:26:48;;;;;;;6.97;3.40;;;;;;;4.49;97.33;101502.47;5056863;28;20106;-76
2022/01/28 06:30:00;;;;;;;12.63;4.07;;;;;;;4.48;96.96;101509.56;5048243;28;20081;-77
2022/01/28 06:32:33;;;;;;;9.50;4.03;;;;;;;4.46;97.19;101505.25;5074788;28;20062;-77
2022/01/28 06:35:09;;;;;;;8.52;4.03;;;;;;;4.49;97.13;101513.09;5067174;28;20032;-76
2022/01/28 06:37:52;;;;;;;9.75;4.40;;;;;;;4.50;97.17;101514.81;5058753;28;20821;-76
2022/01/28 06:40:20;;;;;;;12.13;4.40;;;;;;;4.47;97.16;101518.44;5059241;28;20446;-76
2022/01/28 06:42:59;;;;;;;9.45;4.60;;;;;;;4.48;97.28;101519.31;5057965;28;20044;-76
2022/01/28 06:45:27;;;;;;;9.93;4.38;;;;;;;4.46;97.09;101522.00;5058131;28;20752;-76
2022/01/28 06:48:01;;;;;;;9.10;5.07;;;;;;;4.43;97.36;101527.44;5057375;28;20054;-75
2022/01/28 06:50:36;;;;;;;11.82;4.80;;;;;;;4.39;97.01;101534.63;5067149;28;20024;-76
2022/01/28 06:53:07;;;;;;;10.20;5.72;;;;;;;4.33;97.04;101542.81;5058918;28;20031;-76
2022/01/28 06:55:38;;;;;;;12.32;5.95;;;;;;;4.32;97.05;101542.88;5058354;28;20067;-76
2022/01/28 06:58:10;;;;;;;9.80;5.28;;;;;;;4.31;97.30;101554.38;5052640;28;20075;-76
2022/01/28 07:00:40;;;;;;;8.73;5.82;;;;;;;4.31;97.61;101554.38;5037869;28;20032;-76
2022/01/28 07:03:11;;;;;;;10.57;5.60;;;;;;;4.36;97.51;101555.94;5035660;28;20801;-76
2022/01/28 07:05:40;;;;;;;12.38;5.93;;;;;;;4.43;97.32;101561.84;5037348;28;20123;-77
2022/01/28 07:08:09;;;;;;;11.85;5.68;;;;;;;4.45;97.76;101557.38;5055127;28;20127;-75
2022/01/28 07:10:39;;;;;;;10.50;5.50;;;;;;;4.45;97.22;101567.97;5036729;28;20040;-76
2022/01/28 07:13:12;;;;;;;13.07;5.97;;;;;;;4.45;97.38;101569.75;5037363;28;20044;-75
2022/01/28 07:15:39;;;;;;;9.85;5.47;;;;;;;4.46;97.59;101558.22;5037101;28;20064;-75
2022/01/28 07:18:06;;;;;;;11.90;6.50;;;;;;;4.49;97.43;101572.22;5053116;28;20036;-75
2022/01/28 07:20:39;;;;;;;13.82;6.60;;;;;;;4.48;97.15;101565.19;5036871;28;20043;-75
2022/01/28 07:23:08;;;;;;;10.90;6.55;;;;;;;4.47;97.22;101576.72;5053634;28;20040;-76
2022/01/28 07:25:35;;;;;;;9.50;6.03;;;;;;;4.47;96.89;101581.16;5036851;28;20037;-76
2022/01/28 07:28:04;;;;;;;11.07;6.25;;;;;;;4.41;96.95;101585.75;5038338;28;20097;-76
2022/01/28 07:30:31;;;;;;;13.10;6.50;;;;;;;4.38;96.92;101588.53;5037630;28;20025;-75
2022/01/28 07:32:59;;;;;;;11.07;6.35;;;;;;;4.32;97.06;101591.41;5037087;28;20032;-75
2022/01/28 07:35:30;;;;;;;11.25;7.10;;;;;;;4.27;96.91;101593.38;5039732;28;20060;-75
2022/01/28 07:38:10;;;;;;;14.27;8.18;;;;;;;4.25;97.17;101589.00;5036163;28;20119;-75
2022/01/28 07:40:36;;;;;;;12.15;7.05;;;;;;;4.21;97.53;101598.00;5037880;28;20033;-75
2022/01/28 07:43:03;;;;;;;13.27;7.38;;;;;;;4.23;97.14;101598.78;5037212;28;20096;-76
2022/01/28 07:45:35;;;;;;;15.30;8.00;;;;;;;4.19;97.47;101594.53;5036633;28;20039;-75
2022/01/28 07:48:02;;;;;;;18.02;8.98;;;;;;;4.11;97.38;101595.69;5050604;28;20037;-76
2022/01/28 07:50:33;;;;;;;15.40;8.65;;;;;;;4.10;96.87;101607.19;5052445;28;20055;-76
2022/01/28 07:53:00;;;;;;;14.68;7.45;;;;;;;4.12;97.62;101607.13;5034031;28;20028;-75
2022/01/28 07:55:35;;;;;;;11.25;7.38;;;;;;;4.18;97.35;101606.91;5050818;28;20032;-76
2022/01/28 07:58:02;;;;;;;13.10;7.47;;;;;;;4.16;97.26;101598.16;5037894;28;20105;-76
2022/01/28 08:00:28;;;;;;;15.00;7.40;;;;;;;4.13;97.05;101597.41;5053600;28;20098;-76
2022/01/28 08:02:59;;;;;;;11.27;7.28;;;;;;;4.09;97.15;101602.81;5072552;28;20051;-76
2022/01/28 08:05:25;;;;;;;14.30;7.57;;;;;;;4.16;97.34;101606.09;5057430;28;20083;-75
2022/01/28 08:07:52;;;;;;;12.43;7.53;;;;;;;4.21;97.35;101614.75;5056042;28;20028;-75
2022/01/28 08:10:24;;;;;;;15.98;7.88;;;;;;;4.20;96.88;101618.31;5056490;28;20036;-75
2022/01/28 08:13:03;;;;;;;13.10;7.38;;;;;;;4.15;96.70;101614.97;5055771;28;20405;-76
2022/01/28 08:15:29;;;;;;;;;;;;;;;4.13;96.84;101621.25;5056424;28;20074;-76
2022/01/28 08:18:06;;;;;;;12.85;7.43;;;;;;;4.18;96.52;101628.09;5063911;28;19928;-75
2022/01/28 08:20:38;;;;;;;14.55;7.78;;;;;;;4.18;96.70;101628.09;5058073;28;20039;-75
2022/01/28 08:23:05;;;;;;;13.80;7.47;;;;;;;4.22;96.61;101620.91;5072821;28;20774;-76
2022/01/28 08:25:35;;;;;;;12.80;8.65;;;;;;;4.18;96.75;101627.22;5057693;28;20036;-77
2022/01/28 08:28:06;;;;;;;15.35;8.52;;;;;;;4.10;96.54;101627.50;5056066;28;20445;-75
2022/01/28 08:30:42;;;;;;;12.68;8.18;;;;;;;4.04;96.81;101636.53;5072542;28;20370;-75
2022/01/28 08:33:14;;;;;;;12.77;8.20;;;;;;;4.04;96.40;101641.84;5059720;28;20165;-75
2022/01/28 08:35:51;;;;;;;13.77;8.25;;;;;;;4.06;96.44;101647.94;5057857;28;20481;-75
2022/01/28 08:38:24;;;;;;;10.85;7.40;;;;;;;4.11;96.57;101647.75;5057071;28;20032;-76
2022/01/28 08:40:52;;;;;;;13.30;8.50;;;;;;;4.20;96.69;101646.56;5056761;28;20115;-75
2022/01/28 08:43:21;;;;;;;16.43;9.20;;;;;;;4.27;97.23;101658.69;5056514;28;20032;-75
2022/01/28 08:45:51;;;;;;;14.15;8.98;;;;;;;4.28;96.74;101665.72;5056727;28;20027;-76
2022/01/28 08:48:17;;;;;;;13.13;8.23;;;;;;;4.29;97.00;101660.38;5058090;28;20032;-75
2022/01/28 08:50:44;;;;;;;15.23;8.20;;;;;;;4.27;96.87;101661.34;5062126;28;20032;-76
2022/01/28 08:53:13;;;;;;;16.70;8.73;;;;;;;4.30;96.58;101664.75;5055962;28;20032;-75
2022/01/28 08:55:40;;;;;;;12.63;8.52;;;;;;;4.34;96.93;101662.84;5069080;28;20028;-75
2022/01/28 08:58:09;;;;;;;15.88;8.80;;;;;;;4.35;97.30;101662.78;5056331;28;20066;-76
2022/01/28 09:00:36;;;;;;;15.13;8.82;;;;;;;4.37;97.00;101660.94;5053967;28;20071;-76
2022/01/28 09:03:02;;;;;;;15.73;8.88;;;;;;;4.37;96.81;101666.25;5055908;28;20032;-75
2022/01/28 09:05:29;;;;;;;13.45;8.48;;;;;;;4.39;96.71;101666.19;5052011;28;20092;-75
2022/01/28 09:08:07;;;;;;;15.30;8.95;;;;;;;4.41;96.80;101669.63;5057153;28;20107;-75
2022/01/28 09:10:36;;;;;;;16.92;9.45;;;;;;;4.46;96.75;101675.63;5057473;28;20039;-75
2022/01/28 09:15:33;;;;;;;15.25;9.25;;;;;;;4.48;96.58;101673.78;5076779;28;20044;-75
2022/01/28 09:18:13;;;;;;;15.52;9.23;;;;;;;4.51;96.97;101665.72;5059681;28;20630;-75
2022/01/28 09:20:39;;;;;;;18.77;9.25;;;;;;;4.52;97.24;101670.09;5060462;28;20028;-76
2022/01/28 09:23:06;;;;;;;14.75;9.82;;;;;;;4.53;96.67;101673.63;5076714;28;20028;-76
2022/01/28 09:25:35;;;;;;;13.07;8.85;;;;;;;4.53;96.54;101670.97;5059981;28;20378;-76
2022/01/28 09:28:05;;;;;;;16.75;9.18;;;;;;;4.53;96.53;101668.31;5067174;28;20031;-75
2022/01/28 09:30:43;;;;;;;14.75;8.80;;;;;;;4.51;96.51;101675.47;5061547;28;20052;-76
2022/01/28 09:33:18;;;;;;;16.23;9.43;;;;;;;4.54;96.47;101672.69;5060263;28;20103;-77
2022/01/28 09:35:46;;;;;;;13.85;9.05;;;;;;;4.51;96.63;101670.16;5076308;28;20118;-75
2022/01/28 09:38:16;;;;;;;18.40;9.40;;;;;;;4.52;96.82;101677.19;5060422;28;20066;-75
2022/01/28 09:40:43;;;;;;;18.67;9.32;;;;;;;4.54;97.00;101681.50;5059315;28;20284;-75
2022/01/28 09:43:17;;;;;;;16.63;9.48;;;;;;;4.57;96.84;101676.09;5056985;28;20477;-76
2022/01/28 09:45:48;;;;;;;12.10;8.88;;;;;;;4.60;96.91;101675.09;5061224;28;20104;-76
2022/01/28 09:48:18;;;;;;;12.82;9.30;;;;;;;4.59;97.34;101668.94;5076297;28;20032;-76
2022/01/28 09:50:48;;;;;;;12.88;9.85;;;;;;;4.60;97.22;101675.97;5060662;28;20058;-76
2022/01/28 09:53:19;;;;;;;17.00;9.85;;;;;;;4.61;96.91;101685.66;5058461;28;20064;-75
2022/01/28 09:56:02;;;;;;;16.75;9.70;;;;;;;4.64;97.02;101684.66;5057243;28;20046;-76
2022/01/28 09:58:36;;;;;;;18.67;10.25;;;;;;;4.61;96.78;101685.66;5059290;28;20055;-75
2022/01/28 10:01:14;;;;;;;15.75;9.82;;;;;;;4.63;97.32;101694.41;5058658;28;20107;-76
2022/01/28 10:04:09;;;;;;;14.02;10.13;;;;;;;4.65;97.06;101694.34;5059052;28;20032;-77
2022/01/28 10:06:41;;;;;;;20.02;10.85;;;;;;;4.65;97.48;101686.41;5061039;28;20067;-75
2022/01/28 10:09:25;;;;;;;16.80;10.90;;;;;;;4.64;97.32;101688.19;5075106;28;20040;-75
2022/01/28 10:11:57;;;;;;;14.70;10.15;;;;;;;4.65;97.59;101692.56;5059769;28;20032;-75
2022/01/28 10:14:30;;;;;;;16.73;12.18;;;;;;;4.64;97.62;101696.13;5060938;28;20036;-76
2022/01/28 10:16:57;;;;;;;17.27;11.80;;;;;;;4.65;97.38;101703.16;5059789;28;20039;-76
2022/01/28 10:19:40;;;;;;;16.63;11.95;;;;;;;4.71;97.25;101707.34;5057574;28;20154;-76
2022/01/28 10:22:20;;;;;;;18.52;12.48;;;;;;;4.68;97.59;101718.06;5057547;28;20048;-77
2022/01/28 10:24:52;;;;;;;17.60;12.63;;;;;;;4.65;97.76;101715.53;5074780;28;20032;-77
2022/01/28 10:27:20;;;;;;;19.67;12.65;;;;;;;4.66;97.80;101722.56;5057188;28;20039;-77
2022/01/28 10:29:52;;;;;;;20.95;12.88;;;;;;;4.67;97.74;101719.84;5058025;28;20478;-75
2022/01/28 10:32:20;;;;;;;20.42;13.43;;;;;;;4.67;97.83;101706.63;5058200;28;20036;-76
2022/01/28 10:34:50;;;;;;;21.48;13.60;;;;;;;4.66;97.63;101706.66;5059103;28;20468;-75
2022/01/28 10:37:21;;;;;;;20.38;13.35;;;;;;;4.67;98.07;101700.44;5070537;28;20043;-76
2022/01/28 10:39:49;;;;;;;21.20;13.07;;;;;;;4.71;97.55;101696.75;5058010;28;20093;-76
2022/01/28 10:42:39;;;;;;;20.85;13.95;;;;;;;4.70;98.15;101706.50;5064388;28;20131;-76
2022/01/28 10:45:30;;;;;;;21.95;13.82;;;;;;;4.71;98.04;101717.97;5065292;28;20046;-76
2022/01/28 10:48:09;;;;;;;21.52;14.48;;;;;;;4.71;97.96;101715.31;5057345;28;20039;-77
2022/01/28 10:50:50;;;;;;;19.13;13.55;;;;;;;4.77;97.96;101711.59;5057248;28;20051;-76
2022/01/28 10:53:31;;;;;;;16.92;12.98;;;;;;;4.81;98.10;101714.06;5057131;28;20042;-76
2022/01/28 10:56:00;;;;;;;21.77;12.52;;;;;;;4.79;98.31;101712.41;5058501;28;20028;-77
2022/01/28 10:58:42;;;;;;;19.33;14.02;;;;;;;4.79;98.11;101713.25;5056742;28;20043;-77
2022/01/28 11:01:16;;;;;;;18.90;12.95;;;;;;;4.78;98.15;101705.38;5059738;28;20032;-75
2022/01/28 11:03:54;;;;;;;20.88;13.15;;;;;;;4.76;98.28;101713.38;5053820;28;20088;-75
2022/01/28 11:06:27;;;;;;;18.88;13.80;;;;;;;4.79;98.34;101705.31;5056903;28;20044;-76
2022/01/28 11:09:12;;;;;;;21.45;12.98;;;;;;;4.82;98.17;101706.97;5058774;28;20047;-77
2022/01/28 11:11:46;;;;;;;21.48;13.65;;;;;;;4.86;98.24;101708.59;5058580;28;20032;-76
2022/01/28 11:14:21;;;;;;;20.45;13.27;;;;;;;4.87;98.17;101703.22;5056471;28;20114;-75
2022/01/28 11:17:19;;;;;;;21.60;13.43;;;;;;;4.86;98.12;101709.47;5060247;28;20032;-75
2022/01/28 11:19:52;;;;;;;21.70;13.75;;;;;;;4.86;98.40;101709.47;5059370;28;20040;-74
2022/01/28 11:22:50;;;;;;;22.85;14.32;;;;;;;4.87;98.56;101710.31;5060007;28;20603;-76
2022/01/28 11:25:49;;;;;;;21.88;13.77;;;;;;;4.92;98.71;101709.22;5087332;28;20040;-75
2022/01/28 11:28:27;;;;;;;21.67;13.77;;;;;;;4.95;98.21;101706.44;5073394;28;20040;-75
2022/01/28 11:31:11;;;;;;;20.98;13.80;;;;;;;5.00;98.70;101693.03;5057442;28;20028;-76
2022/01/28 11:33:52;;;;;;;24.55;14.43;;;;;;;5.00;98.48;101704.50;5057123;28;20035;-76
2022/01/28 11:36:41;;;;;;;21.52;14.70;;;;;;;5.01;98.21;101705.34;5063330;28;20139;-77
2022/01/28 11:39:28;;;;;;;20.17;13.93;;;;;;;4.98;98.30;101703.69;5062310;28;20048;-75
2022/01/28 11:42:00;;;;;;;23.33;14.90;;;;;;;4.98;98.56;101713.41;5074257;28;20938;-75
2022/01/28 11:44:54;;;;;;;24.73;14.75;;;;;;;5.00;98.59;101706.28;5074095;28;20034;-77
2022/01/28 11:48:00;;;;;;;22.50;14.90;;;;;;;5.01;98.22;101706.22;5060597;28;20040;-76
2022/01/28 11:50:38;;;;;;;26.35;16.20;;;;;;;5.05;98.72;101697.22;5074050;28;20040;-76
2022/01/28 11:53:26;;;;;;;28.63;15.73;;;;;;;5.09;98.43;101690.00;5057076;28;20025;-75
2022/01/28 11:56:07;;;;;;;27.13;16.55;;;;;;;5.13;98.51;101683.66;5072331;28;20038;-76
2022/01/28 11:59:00;;;;;;;26.17;15.02;;;;;;;5.14;98.51;101676.56;5054178;28;20048;-76
2022/01/28 12:01:46;;;;;;;22.10;14.52;;;;;;;5.13;98.82;101667.75;5074426;28;20049;-76
2022/01/28 12:04:34;;;;;;;26.10;15.30;;;;;;;5.14;98.79;101676.56;5073255;28;20032;-76
2022/01/28 12:07:04;;;;;;;23.92;15.45;;;;;;;5.12;98.45;101673.09;5088592;28;20089;-76
2022/01/28 12:09:32;;;;;;;25.30;15.07;;;;;;;5.12;98.61;101671.31;5071861;28;20119;-76
2022/01/28 12:12:01;;;;;;;25.48;15.85;;;;;;;5.15;98.43;101665.03;5055638;28;20036;-76
2022/01/28 12:15:10;;;;;;;26.63;15.52;;;;;;;5.19;99.00;101664.84;5061704;28;20173;-74
2022/01/28 12:17:41;;;;;;;22.60;14.30;;;;;;;5.23;98.55;101653.22;5085287;28;20040;-76
2022/01/28 12:20:12;;;;;;;24.38;14.68;;;;;;;5.26;98.66;101654.88;5071190;28;20044;-75
2022/01/28 12:23:02;;;;;;;25.48;14.65;;;;;;;5.27;98.59;101651.31;5072296;28;20040;-75
2022/01/28 12:25:43;;;;;;;21.20;14.10;;;;;;;5.29;99.07;101646.81;5084892;28;20036;-75
2022/01/28 12:28:36;;;;;;;23.73;15.57;;;;;;;5.31;98.43;101648.47;5085232;28;20027;-75
2022/01/28 12:31:12;;;;;;;23.08;14.75;;;;;;;5.32;98.43;101644.03;5074475;28;20028;-76
2022/01/28 12:33:42;;;;;;;26.55;15.45;;;;;;;5.32;98.80;101644.03;5056815;28;20032;-76
2022/01/28 12:36:21;;;;;;;23.95;15.70;;;;;;;5.34;98.78;101661.59;5056680;28;20032;-76
2022/01/28 12:41:40;;;;;;;20.80;14.93;;;;;;;5.33;98.27;101648.41;5074824;28;20658;-75
2022/01/28 12:44:10;;;;;;;22.42;15.63;;;;;;;5.27;99.11;101646.88;5058838;28;20756;-75
2022/01/28 12:46:43;;;;;;;22.33;14.88;;;;;;;5.24;98.63;101641.69;5052352;28;20147;-76
2022/01/28 12:49:12;;;;;;;23.65;15.70;;;;;;;5.24;98.59;101638.19;5056855;28;20024;-76
2022/01/28 12:51:40;;;;;;;20.92;15.13;;;;;;;5.19;98.90;101634.81;5054882;28;20032;-76
2022/01/28 12:54:12;;;;;;;24.05;14.90;;;;;;;5.19;98.95;101635.69;5056053;28;20036;-74
2022/01/28 12:56:43;;;;;;;20.60;14.48;;;;;;;5.14;98.58;101632.34;5056632;28;20646;-75
2022/01/28 12:59:11;;;;;;;24.48;15.85;;;;;;;5.10;99.13;101633.41;5055666;28;20055;-75
2022/01/28 13:01:51;;;;;;;28.35;16.90;;;;;;;5.11;99.29;101629.81;5058231;28;20032;-75
2022/01/28 13:04:48;;;;;;;25.85;16.13;;;;;;;5.13;99.15;101629.75;5052000;28;20059;-75
2022/01/28 13:09:59;;;;;;;28.88;16.98;;;;;;;5.16;99.91;101633.16;5071791;28;20047;-75
2022/01/28 13:12:31;;;;;;;27.92;18.20;;;;;;;5.14;99.00;101628.84;5057205;28;20033;-75
2022/01/28 13:15:05;;;;;;;28.95;15.52;;;;;;;5.14;99.57;101623.53;5055905;28;20099;-75
2022/01/28 13:17:31;;;;;;;21.27;15.50;;;;;;;5.13;99.47;101613.84;5063500;28;20048;-74
2022/01/28 13:19:59;;;;;;;24.50;15.43;;;;;;;5.13;99.70;101612.06;5054881;28;20020;-75
2022/01/28 13:22:29;;;;;;;25.67;14.10;;;;;;;5.19;99.60;101606.50;5054823;28;20047;-75
2022/01/28 13:24:56;;;;;;;25.63;14.77;;;;;;;5.22;99.09;101611.72;5055213;28;20040;-75
2022/01/28 13:27:23;;;;;;;23.20;13.95;;;;;;;5.27;99.35;101611.53;5063365;28;20031;-75
2022/01/28 13:29:53;;;;;;;22.05;12.65;;;;;;;5.31;100.00;101602.53;5054108;28;20039;-75